createdAt,value
2019-06-20T00:00:08.501Z,22.28
2019-06-20T00:01:08.455Z,22.28
2019-06-20T00:02:08.458Z,22.29
2019-06-20T00:03:08.433Z,22.29
2019-06-20T00:04:08.429Z,22.29
2019-06-20T00:05:08.455Z,22.28
2019-06-20T00:06:08.403Z,22.29
2019-06-20T00:07:08.393Z,22.28
2019-06-20T00:08:08.379Z,22.28
2019-06-20T00:09:08.377Z,22.28
2019-06-20T00:10:08.358Z,22.29
2019-06-20T00:11:08.376Z,22.26
2019-06-20T00:12:08.339Z,22.28
2019-06-20T00:13:08.332Z,22.28
2019-06-20T00:14:08.314Z,22.28
2019-06-20T00:15:08.316Z,22.28
2019-06-20T00:16:08.329Z,22.28
2019-06-20T00:17:08.309Z,22.28
2019-06-20T00:18:08.278Z,22.26
2019-06-20T00:19:08.271Z,22.26
2019-06-20T00:20:08.253Z,22.28
2019-06-20T00:21:08.243Z,22.26
2019-06-20T00:22:08.265Z,22.28
2019-06-20T00:23:08.226Z,22.26
2019-06-20T00:24:08.219Z,22.28
2019-06-20T00:25:08.219Z,22.26
2019-06-20T00:26:08.188Z,22.28
2019-06-20T00:27:08.216Z,22.28
2019-06-20T00:28:08.162Z,22.26
2019-06-20T00:29:08.160Z,22.26
2019-06-20T00:30:08.151Z,22.26
2019-06-20T00:31:08.129Z,22.26
2019-06-20T00:32:08.126Z,22.26
2019-06-20T00:33:08.163Z,22.28
2019-06-20T00:34:08.099Z,22.26
2019-06-20T00:35:08.092Z,22.28
2019-06-20T00:36:08.085Z,22.26
2019-06-20T00:37:08.107Z,22.26
2019-06-20T00:38:08.061Z,22.26
2019-06-20T00:39:08.078Z,22.26
2019-06-20T00:40:08.039Z,22.26
2019-06-20T00:41:08.027Z,22.28
2019-06-20T00:42:08.015Z,22.28
2019-06-20T00:43:17.612Z,22.28
2019-06-20T00:44:08.996Z,22.26
2019-06-20T00:45:07.978Z,22.28
2019-06-20T00:46:07.969Z,22.26
2019-06-20T00:47:07.965Z,22.26
2019-06-20T00:48:07.959Z,22.28
2019-06-20T00:49:07.965Z,22.26
2019-06-20T00:50:07.941Z,22.26
2019-06-20T00:51:07.912Z,22.26
2019-06-20T00:52:07.931Z,22.26
2019-06-20T00:53:07.891Z,22.26
2019-06-20T00:54:07.921Z,22.26
2019-06-20T00:55:07.876Z,22.28
2019-06-20T00:56:07.856Z,22.26
2019-06-20T00:57:07.853Z,22.28
2019-06-20T00:58:07.873Z,22.26
2019-06-20T00:59:07.858Z,22.28
2019-06-20T01:00:07.817Z,22.26
2019-06-20T01:01:07.811Z,22.26
2019-06-20T01:02:07.800Z,22.26
2019-06-20T01:03:07.866Z,22.26
2019-06-20T01:04:07.778Z,22.26
2019-06-20T01:05:07.808Z,22.26
2019-06-20T01:06:07.750Z,22.26
2019-06-20T01:07:07.739Z,22.25
2019-06-20T01:08:07.734Z,22.26
2019-06-20T01:09:07.742Z,22.26
2019-06-20T01:10:07.713Z,22.26
2019-06-20T01:11:07.737Z,22.26
2019-06-20T01:12:07.683Z,22.26
2019-06-20T01:13:07.679Z,22.26
2019-06-20T01:14:07.662Z,22.26
2019-06-20T01:15:07.732Z,22.25
2019-06-20T01:16:07.691Z,22.28
2019-06-20T01:17:07.670Z,22.26
2019-06-20T01:18:07.624Z,22.26
2019-06-20T01:19:07.613Z,22.26
2019-06-20T01:20:07.603Z,22.26
2019-06-20T01:21:07.590Z,22.28
2019-06-20T01:22:07.603Z,22.26
2019-06-20T01:23:07.565Z,22.26
2019-06-20T01:24:07.571Z,22.26
2019-06-20T01:25:07.543Z,22.28
2019-06-20T01:26:07.539Z,22.26
2019-06-20T01:27:07.563Z,22.25
2019-06-20T01:28:07.512Z,22.26
2019-06-20T01:29:07.509Z,22.28
2019-06-20T01:30:07.512Z,22.26
2019-06-20T01:31:07.508Z,22.26
2019-06-20T01:32:07.494Z,22.25
2019-06-20T01:33:07.464Z,22.26
2019-06-20T01:34:07.462Z,22.26
2019-06-20T01:35:07.441Z,22.26
2019-06-20T01:36:07.426Z,22.26
2019-06-20T01:37:07.413Z,22.26
2019-06-20T01:38:07.430Z,22.26
2019-06-20T01:39:07.395Z,22.26
2019-06-20T01:40:07.391Z,22.26
2019-06-20T01:41:07.374Z,22.25
2019-06-20T01:42:07.364Z,22.28
2019-06-20T01:43:07.368Z,22.26
2019-06-20T01:44:07.339Z,22.26
2019-06-20T01:45:07.331Z,22.26
2019-06-20T01:46:07.322Z,22.28
2019-06-20T01:47:07.307Z,22.26
2019-06-20T01:48:07.292Z,22.26
2019-06-20T01:49:07.314Z,22.26
2019-06-20T01:50:07.272Z,22.26
2019-06-20T01:51:07.268Z,22.26
2019-06-20T01:52:07.256Z,22.28
2019-06-20T01:53:07.244Z,22.26
2019-06-20T01:54:07.255Z,22.26
2019-06-20T01:55:07.217Z,22.25
2019-06-20T01:56:07.233Z,22.25
2019-06-20T01:57:07.221Z,22.26
2019-06-20T01:58:07.185Z,22.28
2019-06-20T01:59:07.177Z,22.26
2019-06-20T02:00:07.168Z,22.26
2019-06-20T02:01:07.154Z,22.25
2019-06-20T02:02:07.168Z,22.26
2019-06-20T02:03:07.138Z,22.26
2019-06-20T02:04:07.127Z,22.25
2019-06-20T02:05:07.112Z,22.26
2019-06-20T02:06:07.099Z,22.25
2019-06-20T02:07:07.157Z,22.26
2019-06-20T02:08:07.078Z,22.25
2019-06-20T02:09:07.069Z,22.25
2019-06-20T02:10:07.061Z,22.25
2019-06-20T02:11:07.043Z,22.23
2019-06-20T02:12:07.031Z,22.25
2019-06-20T02:13:07.046Z,22.25
2019-06-20T02:14:07.675Z,22.25
2019-06-20T02:15:07.001Z,22.25
2019-06-20T02:16:06.996Z,22.23
2019-06-20T02:17:06.987Z,22.25
2019-06-20T02:18:06.991Z,22.25
2019-06-20T02:19:06.959Z,22.25
2019-06-20T02:20:06.971Z,22.23
2019-06-20T02:21:06.948Z,22.23
2019-06-20T02:22:06.928Z,22.25
2019-06-20T02:23:06.956Z,22.25
2019-06-20T02:24:06.906Z,22.25
2019-06-20T02:25:06.895Z,22.25
2019-06-20T02:26:06.880Z,22.25
2019-06-20T02:27:06.868Z,22.23
2019-06-20T02:28:06.855Z,22.25
2019-06-20T02:29:06.870Z,22.23
2019-06-20T02:30:06.861Z,22.25
2019-06-20T02:31:06.824Z,22.25
2019-06-20T02:32:06.818Z,22.23
2019-06-20T02:33:06.808Z,22.25
2019-06-20T02:34:06.819Z,22.23
2019-06-20T02:35:06.778Z,22.25
2019-06-20T02:36:06.787Z,22.25
2019-06-20T02:37:06.757Z,22.23
2019-06-20T02:38:06.749Z,22.23
2019-06-20T02:39:06.743Z,22.23
2019-06-20T02:40:06.776Z,22.25
2019-06-20T02:41:06.725Z,22.26
2019-06-20T02:42:06.740Z,22.25
2019-06-20T02:43:06.714Z,22.25
2019-06-20T02:44:24.522Z,22.25
2019-06-20T02:45:07.695Z,22.25
2019-06-20T02:46:06.660Z,22.23
2019-06-20T02:47:06.655Z,22.23
2019-06-20T02:48:06.646Z,22.25
2019-06-20T02:49:06.692Z,22.25
2019-06-20T02:50:06.646Z,22.25
2019-06-20T02:51:06.606Z,22.25
2019-06-20T02:52:06.602Z,22.25
2019-06-20T02:53:06.599Z,22.25
2019-06-20T02:54:06.578Z,22.25
2019-06-20T02:55:06.568Z,22.25
2019-06-20T02:56:06.578Z,22.23
2019-06-20T02:57:06.544Z,22.25
2019-06-20T02:58:06.533Z,22.23
2019-06-20T02:59:06.522Z,22.25
2019-06-20T03:00:06.512Z,22.25
2019-06-20T03:01:06.595Z,22.25
2019-06-20T03:02:06.488Z,22.23
2019-06-20T03:03:06.476Z,22.25
2019-06-20T03:04:06.481Z,22.25
2019-06-20T03:05:06.457Z,22.25
2019-06-20T03:06:06.498Z,22.25
2019-06-20T03:07:06.438Z,22.25
2019-06-20T03:08:06.430Z,22.25
2019-06-20T03:09:06.432Z,22.25
2019-06-20T03:10:06.405Z,22.25
2019-06-20T03:11:06.397Z,22.25
2019-06-20T03:12:06.388Z,22.23
2019-06-20T03:13:09.374Z,22.26
2019-06-20T03:14:06.383Z,22.25
2019-06-20T03:15:06.350Z,22.25
2019-06-20T03:16:06.352Z,22.25
2019-06-20T03:17:06.328Z,22.25
2019-06-20T03:18:06.318Z,22.25
2019-06-20T03:19:06.358Z,22.23
2019-06-20T03:20:06.293Z,22.25
2019-06-20T03:21:06.279Z,22.25
2019-06-20T03:22:06.294Z,22.25
2019-06-20T03:23:06.259Z,22.25
2019-06-20T03:24:06.247Z,22.25
2019-06-20T03:25:06.264Z,22.23
2019-06-20T03:26:06.232Z,22.25
2019-06-20T03:27:06.219Z,22.23
2019-06-20T03:28:06.203Z,22.25
2019-06-20T03:29:06.245Z,22.23
2019-06-20T03:30:06.196Z,22.23
2019-06-20T03:31:06.170Z,22.23
2019-06-20T03:32:06.193Z,22.23
2019-06-20T03:33:06.153Z,22.23
2019-06-20T03:34:06.167Z,22.23
2019-06-20T03:35:06.148Z,22.23
2019-06-20T03:36:06.123Z,22.23
2019-06-20T03:37:06.104Z,22.23
2019-06-20T03:38:06.094Z,22.23
2019-06-20T03:39:06.106Z,22.25
2019-06-20T03:40:06.129Z,22.23
2019-06-20T03:41:06.062Z,22.23
2019-06-20T03:42:06.055Z,22.23
2019-06-20T03:43:06.043Z,22.23
2019-06-20T03:44:06.033Z,22.25
2019-06-20T03:45:06.026Z,22.25
2019-06-20T03:46:06.034Z,22.25
2019-06-20T03:47:06.000Z,22.23
2019-06-20T03:48:05.989Z,22.25
2019-06-20T03:49:05.975Z,22.25
2019-06-20T03:50:05.971Z,22.23
2019-06-20T03:51:05.978Z,22.23
2019-06-20T03:52:05.996Z,22.23
2019-06-20T03:53:05.939Z,22.23
2019-06-20T03:54:05.939Z,22.23
2019-06-20T03:55:05.911Z,22.23
2019-06-20T03:56:05.898Z,22.23
2019-06-20T03:57:05.892Z,22.23
2019-06-20T03:58:05.912Z,22.23
2019-06-20T03:59:05.870Z,22.23
2019-06-20T04:00:05.854Z,22.25
2019-06-20T04:01:05.847Z,22.23
2019-06-20T04:02:05.856Z,22.23
2019-06-20T04:03:05.854Z,22.23
2019-06-20T04:04:05.818Z,22.22
2019-06-20T04:05:05.848Z,22.25
2019-06-20T04:06:05.811Z,22.23
2019-06-20T04:07:05.782Z,22.23
2019-06-20T04:08:05.770Z,22.22
2019-06-20T04:09:05.797Z,22.23
2019-06-20T04:10:05.756Z,22.23
2019-06-20T04:11:05.734Z,22.22
2019-06-20T04:12:05.729Z,22.23
2019-06-20T04:13:05.717Z,22.25
2019-06-20T04:14:05.707Z,22.22
2019-06-20T04:15:18.439Z,22.23
2019-06-20T04:16:06.679Z,22.25
2019-06-20T04:17:05.681Z,22.23
2019-06-20T04:18:05.664Z,22.22
2019-06-20T04:19:05.651Z,22.22
2019-06-20T04:20:05.649Z,22.22
2019-06-20T04:21:05.659Z,22.23
2019-06-20T04:22:05.618Z,22.23
2019-06-20T04:23:05.614Z,22.25
2019-06-20T04:24:05.597Z,22.23
2019-06-20T04:25:05.592Z,22.23
2019-06-20T04:26:05.600Z,22.23
2019-06-20T04:27:05.569Z,22.23
2019-06-20T04:28:05.555Z,22.23
2019-06-20T04:29:05.558Z,22.23
2019-06-20T04:30:05.544Z,22.23
2019-06-20T04:31:05.553Z,22.23
2019-06-20T04:32:05.508Z,22.23
2019-06-20T04:33:05.501Z,22.23
2019-06-20T04:34:05.488Z,22.23
2019-06-20T04:35:05.498Z,22.25
2019-06-20T04:36:05.531Z,22.23
2019-06-20T04:37:05.463Z,22.23
2019-06-20T04:38:05.447Z,22.23
2019-06-20T04:39:18.357Z,22.23
2019-06-20T04:40:06.421Z,22.23
2019-06-20T04:41:05.410Z,22.23
2019-06-20T04:42:05.440Z,22.23
2019-06-20T04:43:05.399Z,22.23
2019-06-20T04:44:05.384Z,22.23
2019-06-20T04:45:05.371Z,22.22
2019-06-20T04:46:05.393Z,22.23
2019-06-20T04:47:05.379Z,22.22
2019-06-20T04:48:05.341Z,22.22
2019-06-20T04:49:05.325Z,22.23
2019-06-20T04:50:05.319Z,22.22
2019-06-20T04:51:05.303Z,22.23
2019-06-20T04:52:05.299Z,22.23
2019-06-20T04:53:05.313Z,22.23
2019-06-20T04:54:05.280Z,22.23
2019-06-20T04:55:05.260Z,22.23
2019-06-20T04:56:05.858Z,22.25
2019-06-20T04:57:05.241Z,22.23
2019-06-20T04:58:05.260Z,22.23
2019-06-20T04:59:05.243Z,22.23
2019-06-20T05:00:05.210Z,22.25
2019-06-20T05:01:05.199Z,22.23
2019-06-20T05:02:05.186Z,22.23
2019-06-20T05:03:05.176Z,22.25
2019-06-20T05:04:05.198Z,22.25
2019-06-20T05:05:05.157Z,22.23
2019-06-20T05:06:05.141Z,22.23
2019-06-20T05:07:05.131Z,22.23
2019-06-20T05:08:05.127Z,22.25
2019-06-20T05:09:05.131Z,22.23
2019-06-20T05:10:05.120Z,22.23
2019-06-20T05:11:05.105Z,22.25
2019-06-20T05:12:05.075Z,22.25
2019-06-20T05:13:05.075Z,22.23
2019-06-20T05:14:05.066Z,22.25
2019-06-20T05:15:05.070Z,22.22
2019-06-20T05:16:05.030Z,22.23
2019-06-20T05:17:07.243Z,22.23
2019-06-20T05:18:05.014Z,22.23
2019-06-20T05:19:04.997Z,22.25
2019-06-20T05:20:05.056Z,22.23
2019-06-20T05:21:04.997Z,22.23
2019-06-20T05:22:05.020Z,22.25
2019-06-20T05:23:04.954Z,22.23
2019-06-20T05:24:04.945Z,22.23
2019-06-20T05:25:04.944Z,22.23
2019-06-20T05:26:04.948Z,22.23
2019-06-20T05:27:04.910Z,22.23
2019-06-20T05:28:04.902Z,22.23
2019-06-20T05:29:05.539Z,22.23
2019-06-20T05:30:04.881Z,22.23
2019-06-20T05:31:04.917Z,22.23
2019-06-20T05:32:04.857Z,22.25
2019-06-20T05:33:04.846Z,22.23
2019-06-20T05:34:04.849Z,22.23
2019-06-20T05:35:04.825Z,22.23
2019-06-20T05:36:04.827Z,22.25
2019-06-20T05:37:04.961Z,22.23
2019-06-20T05:38:04.798Z,22.25
2019-06-20T05:39:04.778Z,22.23
2019-06-20T05:40:04.775Z,22.23
2019-06-20T05:41:04.761Z,22.23
2019-06-20T05:42:04.806Z,22.23
2019-06-20T05:43:04.736Z,22.25
2019-06-20T05:44:04.741Z,22.25
2019-06-20T05:45:04.715Z,22.22
2019-06-20T05:46:09.363Z,22.23
2019-06-20T05:47:12.650Z,22.23
2019-06-20T05:48:05.685Z,22.22
2019-06-20T05:49:04.676Z,22.23
2019-06-20T05:50:04.667Z,22.23
2019-06-20T05:51:04.657Z,22.22
2019-06-20T05:52:04.650Z,22.25
2019-06-20T05:53:04.653Z,22.23
2019-06-20T05:54:04.670Z,22.23
2019-06-20T05:55:04.611Z,22.23
2019-06-20T05:56:04.596Z,22.23
2019-06-20T05:57:04.743Z,22.22
2019-06-20T05:58:04.602Z,22.22
2019-06-20T05:59:04.568Z,22.23
2019-06-20T06:00:04.552Z,22.23
2019-06-20T06:01:04.545Z,22.23
2019-06-20T06:02:04.654Z,22.22
2019-06-20T06:03:07.071Z,22.25
2019-06-20T06:04:04.517Z,22.23
2019-06-20T06:05:04.497Z,22.25
2019-06-20T06:06:04.487Z,22.25
2019-06-20T06:07:05.157Z,22.23
2019-06-20T06:08:04.463Z,22.22
2019-06-20T06:09:04.487Z,22.23
2019-06-20T06:10:05.538Z,22.22
2019-06-20T06:11:04.440Z,22.23
2019-06-20T06:12:04.430Z,22.23
2019-06-20T06:13:04.414Z,22.23
2019-06-20T06:14:04.429Z,22.23
2019-06-20T06:15:04.394Z,22.23
2019-06-20T06:16:04.384Z,22.22
2019-06-20T06:17:04.368Z,22.23
2019-06-20T06:18:04.362Z,22.25
2019-06-20T06:19:04.345Z,22.23
2019-06-20T06:20:04.369Z,22.23
2019-06-20T06:21:04.329Z,22.25
2019-06-20T06:22:04.316Z,22.23
2019-06-20T06:23:04.302Z,22.23
2019-06-20T06:24:04.296Z,22.23
2019-06-20T06:25:04.315Z,22.23
2019-06-20T06:26:04.269Z,22.23
2019-06-20T06:27:04.259Z,22.23
2019-06-20T06:28:04.261Z,22.23
2019-06-20T06:29:04.245Z,22.22
2019-06-20T06:30:04.234Z,22.23
2019-06-20T06:31:04.259Z,22.23
2019-06-20T06:32:04.211Z,22.23
2019-06-20T06:33:04.254Z,22.23
2019-06-20T06:34:04.194Z,22.25
2019-06-20T06:35:04.186Z,22.25
2019-06-20T06:36:04.184Z,22.25
2019-06-20T06:37:04.150Z,22.25
2019-06-20T06:38:04.138Z,22.25
2019-06-20T06:39:04.141Z,22.23
2019-06-20T06:40:04.148Z,22.23
2019-06-20T06:41:04.132Z,22.25
2019-06-20T06:42:04.099Z,22.23
2019-06-20T06:43:04.086Z,22.23
2019-06-20T06:44:04.085Z,22.23
2019-06-20T06:45:04.070Z,22.23
2019-06-20T06:46:04.081Z,22.25
2019-06-20T06:47:04.046Z,22.23
2019-06-20T06:48:04.030Z,22.23
2019-06-20T06:49:04.027Z,22.23
2019-06-20T06:50:04.013Z,22.23
2019-06-20T06:51:04.000Z,22.23
2019-06-20T06:52:04.016Z,22.23
2019-06-20T06:53:04.016Z,22.23
2019-06-20T06:54:03.973Z,22.23
2019-06-20T06:55:03.957Z,22.23
2019-06-20T06:56:03.951Z,22.23
2019-06-20T06:57:03.961Z,22.22
2019-06-20T06:58:03.925Z,22.23
2019-06-20T06:59:03.921Z,22.23
2019-06-20T07:00:03.921Z,22.22
2019-06-20T07:01:03.898Z,22.22
2019-06-20T07:02:03.883Z,22.23
2019-06-20T07:03:03.912Z,22.23
2019-06-20T07:04:03.862Z,22.23
2019-06-20T07:05:03.859Z,22.25
2019-06-20T07:06:03.839Z,22.23
2019-06-20T07:07:03.826Z,22.22
2019-06-20T07:08:03.844Z,22.23
2019-06-20T07:09:03.807Z,22.22
2019-06-20T07:10:03.802Z,22.23
2019-06-20T07:11:03.784Z,22.23
2019-06-20T07:12:03.774Z,22.25
2019-06-20T07:13:03.810Z,22.23
2019-06-20T07:14:03.750Z,22.25
2019-06-20T07:15:03.737Z,22.23
2019-06-20T07:16:03.736Z,22.23
2019-06-20T07:17:03.719Z,22.25
2019-06-20T07:18:03.719Z,22.23
2019-06-20T07:19:03.718Z,22.25
2019-06-20T07:20:03.700Z,22.23
2019-06-20T07:21:03.696Z,22.25
2019-06-20T07:22:03.763Z,22.23
2019-06-20T07:23:03.655Z,22.23
2019-06-20T07:24:03.668Z,22.23
2019-06-20T07:25:03.631Z,22.23
2019-06-20T07:26:03.632Z,22.25
2019-06-20T07:27:03.610Z,22.25
2019-06-20T07:28:03.605Z,22.23
2019-06-20T07:29:03.630Z,22.23
2019-06-20T07:30:03.607Z,22.23
2019-06-20T07:31:03.568Z,22.25
2019-06-20T07:32:03.599Z,22.25
2019-06-20T07:33:03.546Z,22.23
2019-06-20T07:34:03.552Z,22.25
2019-06-20T07:35:03.524Z,22.25
2019-06-20T07:36:03.522Z,22.25
2019-06-20T07:37:03.523Z,22.23
2019-06-20T07:38:03.508Z,22.25
2019-06-20T07:39:03.487Z,22.25
2019-06-20T07:40:03.471Z,22.23
2019-06-20T07:41:03.471Z,22.25
2019-06-20T07:42:03.447Z,22.25
2019-06-20T07:43:03.465Z,22.25
2019-06-20T07:44:03.464Z,22.25
2019-06-20T07:45:03.415Z,22.25
2019-06-20T07:46:03.476Z,22.23
2019-06-20T07:47:16.701Z,22.25
2019-06-20T07:48:04.410Z,22.25
2019-06-20T07:49:03.382Z,22.25
2019-06-20T07:50:03.356Z,22.26
2019-06-20T07:51:03.346Z,22.25
2019-06-20T07:52:03.357Z,22.23
2019-06-20T07:53:03.333Z,22.25
2019-06-20T07:54:03.356Z,22.25
2019-06-20T07:55:03.301Z,22.25
2019-06-20T07:56:03.294Z,22.25
2019-06-20T07:57:03.279Z,22.25
2019-06-20T07:58:03.276Z,22.26
2019-06-20T07:59:03.301Z,22.26
2019-06-20T08:00:03.253Z,22.25
2019-06-20T08:01:03.251Z,22.26
2019-06-20T08:02:03.236Z,22.26
2019-06-20T08:03:03.220Z,22.26
2019-06-20T08:04:03.245Z,22.26
2019-06-20T08:05:03.197Z,22.26
2019-06-20T08:06:03.188Z,22.26
2019-06-20T08:07:03.174Z,22.28
2019-06-20T08:08:03.163Z,22.28
2019-06-20T08:09:03.154Z,22.28
2019-06-20T08:10:03.168Z,22.28
2019-06-20T08:11:03.131Z,22.26
2019-06-20T08:12:03.132Z,22.28
2019-06-20T08:13:03.110Z,22.28
2019-06-20T08:14:03.138Z,22.28
2019-06-20T08:15:14.489Z,22.28
2019-06-20T08:16:04.224Z,22.29
2019-06-20T08:17:03.064Z,22.29
2019-06-20T08:18:03.058Z,22.28
2019-06-20T08:19:03.055Z,22.29
2019-06-20T08:20:03.068Z,22.29
2019-06-20T08:21:03.047Z,22.29
2019-06-20T08:22:03.033Z,22.29
2019-06-20T08:23:03.003Z,22.29
2019-06-20T08:24:02.986Z,22.29
2019-06-20T08:25:03.302Z,22.26
2019-06-20T08:26:02.996Z,22.26
2019-06-20T08:27:03.611Z,22.28
2019-06-20T08:28:04.279Z,22.28
2019-06-20T08:29:16.274Z,22.26
2019-06-20T08:30:05.124Z,22.28
2019-06-20T08:31:02.941Z,22.28
2019-06-20T08:32:02.901Z,22.25
2019-06-20T08:33:07.538Z,22.26
2019-06-20T08:34:04.430Z,22.28
2019-06-20T08:35:04.438Z,22.25
2019-06-20T08:36:04.478Z,22.26
2019-06-20T08:37:04.272Z,22.28
2019-06-20T08:38:03.649Z,22.28
2019-06-20T08:39:02.830Z,22.28
2019-06-20T08:40:04.160Z,22.28
2019-06-20T08:41:04.305Z,22.28
2019-06-20T08:42:04.292Z,22.29
2019-06-20T08:43:04.139Z,22.28
2019-06-20T08:44:03.933Z,22.29
2019-06-20T08:45:03.882Z,22.29
2019-06-20T08:46:04.078Z,22.29
2019-06-20T08:47:03.827Z,22.29
2019-06-20T08:48:02.884Z,22.28
2019-06-20T08:49:03.621Z,22.29
2019-06-20T08:50:03.858Z,22.29
2019-06-20T08:51:02.705Z,22.28
2019-06-20T08:52:03.522Z,22.29
2019-06-20T08:53:03.663Z,22.29
2019-06-20T08:54:03.467Z,22.26
2019-06-20T08:55:03.380Z,22.28
2019-06-20T08:56:03.190Z,22.29
2019-06-20T08:57:04.000Z,22.29
2019-06-20T08:58:03.429Z,22.30
2019-06-20T08:59:02.697Z,22.29
2019-06-20T09:09:02.530Z,22.28
2019-06-20T09:10:04.177Z,22.29
2019-06-20T09:11:03.928Z,22.28
2019-06-20T09:12:02.492Z,22.29
2019-06-20T09:13:03.714Z,22.29
2019-06-20T09:14:04.089Z,22.28
2019-06-20T09:15:03.233Z,22.28
2019-06-20T09:16:03.088Z,22.28
2019-06-20T09:17:02.916Z,22.30
2019-06-20T09:18:02.908Z,22.29
2019-06-20T09:19:02.630Z,22.28
2019-06-20T09:20:02.932Z,22.28
2019-06-20T09:21:02.419Z,22.29
2019-06-20T09:22:02.382Z,22.29
2019-06-20T09:23:03.316Z,22.29
2019-06-20T09:24:02.381Z,22.29
2019-06-20T09:25:02.930Z,22.28
2019-06-20T09:26:02.319Z,22.29
2019-06-20T09:27:04.156Z,22.29
2019-06-20T09:28:02.608Z,22.29
2019-06-20T09:29:04.077Z,22.29
2019-06-20T09:30:03.463Z,22.29
2019-06-20T09:31:03.999Z,22.29
2019-06-20T09:32:02.303Z,22.29
2019-06-20T09:33:02.258Z,22.30
2019-06-20T09:34:05.257Z,22.30
2019-06-20T09:35:02.982Z,22.30
2019-06-20T09:36:02.248Z,22.32
2019-06-20T09:37:03.928Z,22.30
2019-06-20T09:38:03.330Z,22.30
2019-06-20T09:39:03.758Z,22.30
2019-06-20T09:40:03.580Z,22.33
2019-06-20T09:41:03.338Z,22.30
2019-06-20T09:42:03.431Z,22.32
2019-06-20T09:43:02.900Z,22.32
2019-06-20T09:44:03.148Z,22.32
2019-06-20T09:45:02.929Z,22.32
2019-06-20T09:46:02.606Z,22.30
2019-06-20T09:47:02.523Z,22.30
2019-06-20T09:48:02.730Z,22.32
2019-06-20T09:49:02.759Z,22.30
2019-06-20T09:50:02.077Z,22.30
2019-06-20T09:51:02.049Z,22.32
2019-06-20T09:52:02.054Z,22.30
2019-06-20T09:53:02.037Z,22.32
2019-06-20T09:54:02.056Z,22.30
2019-06-20T09:55:02.010Z,22.32
2019-06-20T09:56:01.994Z,22.30
2019-06-20T09:57:01.984Z,22.30
2019-06-20T09:58:01.972Z,22.32
2019-06-20T09:59:02.016Z,22.32
2019-06-20T10:00:09.779Z,22.32
2019-06-20T10:01:02.946Z,22.32
2019-06-20T10:02:02.161Z,22.32
2019-06-20T10:03:01.917Z,22.30
2019-06-20T10:04:01.938Z,22.33
2019-06-20T10:05:01.975Z,22.32
2019-06-20T10:06:12.806Z,22.32
2019-06-20T10:07:02.869Z,22.32
2019-06-20T10:08:01.860Z,22.30
2019-06-20T10:09:01.856Z,22.32
2019-06-20T10:10:01.878Z,22.30
2019-06-20T10:11:01.857Z,22.32
2019-06-20T10:12:01.822Z,22.32
2019-06-20T10:13:01.812Z,22.30
2019-06-20T10:14:01.831Z,22.30
2019-06-20T10:15:01.792Z,22.32
2019-06-20T10:16:01.798Z,22.32
2019-06-20T10:17:01.789Z,22.33
2019-06-20T10:18:01.759Z,22.33
2019-06-20T10:19:01.749Z,22.32
2019-06-20T10:20:01.800Z,22.32
2019-06-20T10:21:01.743Z,22.33
2019-06-20T10:22:01.717Z,22.32
2019-06-20T10:23:01.727Z,22.33
2019-06-20T10:24:01.692Z,22.32
2019-06-20T10:25:01.696Z,22.32
2019-06-20T10:26:01.672Z,22.33
2019-06-20T10:27:01.686Z,22.35
2019-06-20T10:28:01.649Z,22.33
2019-06-20T10:29:01.648Z,22.32
2019-06-20T10:30:14.007Z,22.33
2019-06-20T10:31:02.620Z,22.33
2019-06-20T10:32:01.655Z,22.33
2019-06-20T10:33:01.645Z,22.32
2019-06-20T10:34:01.581Z,22.32
2019-06-20T10:35:01.678Z,22.33
2019-06-20T10:36:01.650Z,22.32
2019-06-20T10:37:01.544Z,22.32
2019-06-20T10:38:01.572Z,22.30
2019-06-20T10:39:01.523Z,22.33
2019-06-20T10:40:01.520Z,22.33
2019-06-20T10:41:01.539Z,22.32
2019-06-20T10:42:01.550Z,22.32
2019-06-20T10:43:01.505Z,22.32
2019-06-20T10:44:01.476Z,22.32
2019-06-20T10:45:01.464Z,22.33
2019-06-20T10:46:01.479Z,22.33
2019-06-20T10:47:01.450Z,22.35
2019-06-20T10:48:01.435Z,22.32
2019-06-20T10:49:01.442Z,22.33
2019-06-20T10:50:01.407Z,22.33
2019-06-20T10:51:01.396Z,22.33
2019-06-20T10:52:01.390Z,22.33
2019-06-20T10:53:01.402Z,22.35
2019-06-20T10:54:01.392Z,22.35
2019-06-20T10:55:01.415Z,22.35
2019-06-20T10:56:01.339Z,22.33
2019-06-20T10:57:01.331Z,22.35
2019-06-20T10:58:01.331Z,22.36
2019-06-20T10:59:01.330Z,22.33
2019-06-20T11:00:01.302Z,22.33
2019-06-20T11:01:01.286Z,22.35
2019-06-20T11:02:01.306Z,22.35
2019-06-20T11:03:01.368Z,22.33
2019-06-20T11:04:01.254Z,22.33
2019-06-20T11:05:01.240Z,22.33
2019-06-20T11:06:01.256Z,22.33
2019-06-20T11:07:01.229Z,22.33
2019-06-20T11:08:01.237Z,22.33
2019-06-20T11:09:01.242Z,22.33
2019-06-20T11:10:01.188Z,22.33
2019-06-20T11:11:01.195Z,22.35
2019-06-20T11:12:01.167Z,22.33
2019-06-20T11:13:01.198Z,22.33
2019-06-20T11:14:01.162Z,22.33
2019-06-20T11:15:01.136Z,22.35
2019-06-20T11:16:01.136Z,22.33
2019-06-20T11:17:01.117Z,22.33
2019-06-20T11:18:01.106Z,22.33
2019-06-20T11:19:01.175Z,22.33
2019-06-20T11:20:01.087Z,22.33
2019-06-20T11:21:01.072Z,22.33
2019-06-20T11:22:01.063Z,22.33
2019-06-20T11:23:01.045Z,22.33
2019-06-20T11:24:01.040Z,22.35
2019-06-20T11:25:01.068Z,22.33
2019-06-20T11:26:01.021Z,22.35
2019-06-20T11:27:01.009Z,22.35
2019-06-20T11:28:00.996Z,22.35
2019-06-20T11:29:00.980Z,22.33
2019-06-20T11:30:01.003Z,22.33
2019-06-20T11:31:00.970Z,22.35
2019-06-20T11:32:00.950Z,22.35
2019-06-20T11:33:00.951Z,22.33
2019-06-20T11:34:00.926Z,22.33
2019-06-20T11:35:00.921Z,22.32
2019-06-20T11:36:00.939Z,22.32
2019-06-20T11:37:00.896Z,22.32
2019-06-20T11:38:00.887Z,22.32
2019-06-20T11:39:00.873Z,22.32
2019-06-20T11:40:00.865Z,22.30
2019-06-20T11:41:00.885Z,22.30
2019-06-20T11:42:00.842Z,22.30
2019-06-20T11:43:00.828Z,22.33
2019-06-20T11:44:00.823Z,22.32
2019-06-20T11:45:00.808Z,22.32
2019-06-20T11:46:00.802Z,22.32
2019-06-20T11:47:00.810Z,22.32
2019-06-20T11:48:00.778Z,22.33
2019-06-20T11:49:00.771Z,22.33
2019-06-20T11:50:00.754Z,22.32
2019-06-20T11:51:00.746Z,22.32
2019-06-20T11:52:00.757Z,22.32
2019-06-20T11:53:00.723Z,22.32
2019-06-20T11:54:00.732Z,22.32
2019-06-20T11:55:00.700Z,22.33
2019-06-20T11:56:00.690Z,22.33
2019-06-20T11:57:00.702Z,22.33
2019-06-20T11:58:00.708Z,22.33
2019-06-20T11:59:00.657Z,22.32
2019-06-20T12:00:00.651Z,22.32
2019-06-20T12:01:03.959Z,22.33
2019-06-20T12:02:00.625Z,22.32
2019-06-20T12:03:00.616Z,22.32
2019-06-20T12:04:00.627Z,22.32
2019-06-20T12:05:00.589Z,22.33
2019-06-20T12:06:00.585Z,22.33
2019-06-20T12:07:00.605Z,22.32
2019-06-20T12:08:00.563Z,22.32
2019-06-20T12:09:00.584Z,22.32
2019-06-20T12:10:00.536Z,22.32
2019-06-20T12:11:00.529Z,22.32
2019-06-20T12:12:00.523Z,22.32
2019-06-20T12:13:00.502Z,22.32
2019-06-20T12:14:00.546Z,22.33
2019-06-20T12:15:00.488Z,22.32
2019-06-20T12:16:00.478Z,22.33
2019-06-20T12:17:00.479Z,22.33
2019-06-20T12:18:00.447Z,22.32
2019-06-20T12:19:00.446Z,22.33
2019-06-20T12:20:00.460Z,22.33
2019-06-20T12:21:00.417Z,22.33
2019-06-20T12:22:00.406Z,22.33
2019-06-20T12:23:00.399Z,22.35
2019-06-20T12:24:00.394Z,22.33
2019-06-20T12:25:00.377Z,22.33
2019-06-20T12:26:00.386Z,22.33
2019-06-20T12:27:00.370Z,22.33
2019-06-20T12:28:00.340Z,22.33
2019-06-20T12:29:00.329Z,22.35
2019-06-20T12:30:00.328Z,22.33
2019-06-20T12:31:00.333Z,22.33
2019-06-20T12:32:00.295Z,22.33
2019-06-20T12:33:00.290Z,22.32
2019-06-20T12:34:00.292Z,22.33
2019-06-20T12:35:00.275Z,22.33
2019-06-20T12:36:00.271Z,22.32
2019-06-20T12:37:00.248Z,22.33
2019-06-20T12:38:00.237Z,22.33
2019-06-20T12:39:00.225Z,22.33
2019-06-20T12:40:00.250Z,22.33
2019-06-20T12:41:00.223Z,22.35
2019-06-20T12:42:00.191Z,22.33
2019-06-20T12:43:00.183Z,22.33
2019-06-20T12:44:00.170Z,22.32
2019-06-20T12:45:00.164Z,22.32
2019-06-20T12:46:00.150Z,22.33
2019-06-20T12:47:00.160Z,22.35
2019-06-20T12:48:00.133Z,22.33
2019-06-20T12:49:00.132Z,22.32
2019-06-20T12:50:00.133Z,22.33
2019-06-20T12:51:00.090Z,22.32
2019-06-20T12:52:00.090Z,22.33
2019-06-20T12:53:00.127Z,22.32
2019-06-20T12:54:00.066Z,22.32
2019-06-20T12:55:00.048Z,22.32
2019-06-20T12:56:00.041Z,22.32
2019-06-20T12:57:00.024Z,22.32
2019-06-20T12:58:00.048Z,22.32
2019-06-20T12:59:00.009Z,22.33
2019-06-20T13:00:00.008Z,22.32
2019-06-20T13:00:59.986Z,22.33